createdAt,value
2019-01-22T00:01:14.231Z,99712.80
2019-01-22T00:03:45.249Z,99714.13
2019-01-22T00:06:16.254Z,99711.10
2019-01-22T00:08:47.307Z,99711.91
2019-01-22T00:11:18.234Z,99716.87
2019-01-22T00:13:49.265Z,99715.59
2019-01-22T00:16:20.223Z,99707.33
2019-01-22T00:18:53.063Z,99706.89
2019-01-22T00:21:25.739Z,99702.25
2019-01-22T00:23:56.674Z,99700.47
2019-01-22T00:26:29.532Z,99699.26
2019-01-22T00:29:00.529Z,99696.29
2019-01-22T00:31:31.457Z,99691.69
2019-01-22T00:34:02.612Z,99685.53
2019-01-22T00:36:33.574Z,99686.64
2019-01-22T00:39:04.917Z,99683.08
2019-01-22T00:41:35.614Z,99687.11
2019-01-22T00:44:06.715Z,99677.91
2019-01-22T00:46:37.655Z,99683.37
2019-01-22T00:49:09.571Z,99682.13
2019-01-22T00:51:39.965Z,99682.86
2019-01-22T00:54:10.681Z,99675.11
2019-01-22T00:56:41.642Z,99674.91
2019-01-22T00:59:12.738Z,99675.47
2019-01-22T01:01:43.753Z,99673.72
2019-01-22T01:04:14.723Z,99675.05
2019-01-22T01:06:47.688Z,99666.89
2019-01-22T01:09:18.714Z,99675.05
2019-01-22T01:11:49.746Z,99671.52
2019-01-22T01:14:21.739Z,99670.42
2019-01-22T01:16:52.873Z,99669.39
2019-01-22T01:19:25.958Z,99661.39
2019-01-22T01:21:56.802Z,99666.05
2019-01-22T01:24:27.753Z,99662.84
2019-01-22T01:27:00.003Z,99668.61
2019-01-22T01:29:32.805Z,99670.63
2019-01-22T01:32:03.359Z,99669.89
2019-01-22T01:34:33.845Z,99667.89
2019-01-22T01:37:04.211Z,99665.78
2019-01-22T01:39:36.556Z,99664.39
2019-01-22T01:42:06.935Z,99662.42
2019-01-22T01:44:37.822Z,99659.77
2019-01-22T01:47:09.409Z,99655.96
2019-01-22T01:49:39.944Z,99651.36
2019-01-22T01:52:10.478Z,99650.53
2019-01-22T01:54:41.972Z,99651.72
2019-01-22T01:57:12.902Z,99646.52
2019-01-22T01:59:44.246Z,99643.87
2019-01-22T02:02:14.986Z,99641.25
2019-01-22T02:04:45.967Z,99641.11
2019-01-22T02:07:16.925Z,99637.58
2019-01-22T02:09:47.856Z,99629.58
2019-01-22T02:12:22.926Z,99638.14
2019-01-22T02:15:00.874Z,99633.55
2019-01-22T02:18:23.062Z,99631.67
2019-01-22T02:21:34.184Z,99623.98
2019-01-22T02:24:41.743Z,99616.17
2019-01-22T02:27:44.694Z,99619.36
2019-01-22T02:30:36.654Z,99611.35
2019-01-22T02:33:43.533Z,99605.83
2019-01-22T02:37:01.535Z,99610.98
2019-01-22T02:40:02.577Z,99605.83
2019-01-22T02:43:05.326Z,99592.50
2019-01-22T02:46:16.857Z,99593.99
2019-01-22T02:49:24.595Z,99595.75
2019-01-22T02:52:45.683Z,99588.38
2019-01-22T02:55:25.811Z,99591.09
2019-01-22T02:58:34.347Z,99593.00
2019-01-22T03:01:43.432Z,99583.00
2019-01-22T03:04:45.620Z,99579.45
2019-01-22T03:07:32.643Z,99578.48
2019-01-22T03:10:50.725Z,99571.61
2019-01-22T03:14:13.084Z,99571.48
2019-01-22T03:17:28.678Z,99566.75
2019-01-22T03:20:25.889Z,99570.80
2019-01-22T03:24:05.223Z,99571.74
2019-01-22T03:27:14.155Z,99565.64
2019-01-22T03:30:25.422Z,99566.61
2019-01-22T03:33:51.448Z,99552.14
2019-01-22T03:37:06.130Z,99541.89
2019-01-22T03:39:57.653Z,99544.77
2019-01-22T03:42:48.307Z,99542.90
2019-01-22T03:45:56.803Z,99545.33
2019-01-22T03:48:49.039Z,99539.56
2019-01-22T03:51:44.620Z,99539.27
2019-01-22T03:54:43.685Z,99539.42
2019-01-22T03:57:37.552Z,99533.97
2019-01-22T04:00:16.590Z,99531.11
2019-01-22T04:02:48.544Z,99524.86
2019-01-22T04:05:19.548Z,99526.65
2019-01-22T04:07:50.512Z,99523.08
2019-01-22T04:10:37.844Z,99519.19
2019-01-22T04:13:10.686Z,99522.92
2019-01-22T04:15:43.131Z,99516.06
2019-01-22T04:18:15.579Z,99524.76
2019-01-22T04:20:48.624Z,99525.62
2019-01-22T04:23:45.304Z,99522.44
2019-01-22T04:26:40.120Z,99523.30
2019-01-22T04:29:28.644Z,99517.46
2019-01-22T04:32:30.152Z,99514.33
2019-01-22T04:35:48.208Z,99520.54
2019-01-22T04:39:16.134Z,99514.00
2019-01-22T04:42:44.042Z,99520.99
2019-01-22T04:46:11.961Z,99510.03
2019-01-22T04:49:40.040Z,99515.28
2019-01-22T04:52:52.687Z,99508.20
2019-01-22T04:56:01.805Z,99514.83
2019-01-22T04:59:29.681Z,99513.59
2019-01-22T05:02:57.626Z,99508.78
2019-01-22T05:09:15.923Z,99505.97
2019-01-22T05:12:43.796Z,99505.69
2019-01-22T05:16:11.677Z,99502.62
2019-01-22T05:19:19.177Z,99502.77
2019-01-22T05:22:47.186Z,99497.84
2019-01-22T05:25:41.305Z,99495.53
2019-01-22T05:29:09.188Z,99491.26
2019-01-22T05:32:37.053Z,99493.78
2019-01-22T05:35:52.746Z,99487.20
2019-01-22T05:42:24.477Z,99482.16
2019-01-22T05:45:40.143Z,99478.36
2019-01-22T05:48:55.629Z,99478.96
2019-01-22T05:52:04.167Z,99474.70
2019-01-22T05:55:21.429Z,99476.34
2019-01-22T05:58:49.298Z,99472.30
2019-01-22T06:01:30.718Z,99471.70
2019-01-22T06:04:58.681Z,99466.69
2019-01-22T06:08:10.954Z,99462.16
2019-01-22T06:11:07.323Z,99467.94
2019-01-22T06:14:35.184Z,99467.02
2019-01-22T06:18:03.174Z,99462.64
2019-01-22T06:21:25.527Z,99467.67
2019-01-22T06:24:35.647Z,99469.71
2019-01-22T06:27:32.472Z,99472.96
2019-01-22T06:30:41.869Z,99476.25
2019-01-22T06:34:09.789Z,99476.25
2019-01-22T06:37:38.793Z,99475.62
2019-01-22T06:40:50.978Z,99483.18
2019-01-22T06:44:07.462Z,99484.05
2019-01-22T06:47:35.326Z,99490.74
2019-01-22T06:50:43.992Z,99492.59
2019-01-22T06:53:55.724Z,99493.39
2019-01-22T06:56:59.486Z,99486.92
2019-01-22T07:00:27.443Z,99488.09
2019-01-22T07:03:55.352Z,99489.50
2019-01-22T07:07:23.220Z,99486.53
2019-01-22T07:10:51.088Z,99484.66
2019-01-22T07:14:19.050Z,99477.13
2019-01-22T07:17:27.609Z,99479.07
2019-01-22T07:20:55.474Z,99478.05
2019-01-22T07:24:23.400Z,99474.16
2019-01-22T07:27:39.376Z,99471.94
2019-01-22T07:31:07.721Z,99470.05
2019-01-22T07:34:16.241Z,99465.09
2019-01-22T07:37:44.175Z,99455.27
2019-01-22T07:40:52.642Z,99450.77
2019-01-22T07:44:20.547Z,99456.98
2019-01-22T07:47:48.518Z,99456.98
2019-01-22T07:51:16.420Z,99452.25
2019-01-22T07:54:44.276Z,99457.27
2019-01-22T07:58:12.190Z,99446.77
2019-01-22T08:01:40.119Z,99448.47
2019-01-22T08:05:26.939Z,99441.36
2019-01-22T08:08:56.631Z,99442.39
2019-01-22T08:12:08.386Z,99442.01
2019-01-22T08:15:18.523Z,99444.62
2019-01-22T08:18:46.559Z,99448.95
2019-01-22T08:22:14.405Z,99446.13
2019-01-22T08:25:42.301Z,99450.02
2019-01-22T08:28:50.648Z,99445.77
2019-01-22T08:32:18.561Z,99444.41
2019-01-22T08:35:46.416Z,99437.64
2019-01-22T08:38:58.364Z,99442.75
2019-01-22T08:42:26.235Z,99440.35
2019-01-22T08:45:39.334Z,99441.27
2019-01-22T08:49:07.200Z,99439.14
2019-01-22T08:52:15.671Z,99439.42
2019-01-22T08:55:31.963Z,99437.67
2019-01-22T08:58:52.091Z,99429.97
2019-01-22T09:02:19.951Z,99435.99
2019-01-22T09:05:47.821Z,99429.36
2019-01-22T09:09:15.926Z,99424.64
2019-01-22T09:12:43.911Z,99415.56
2019-01-22T09:16:11.812Z,99416.09
2019-01-22T09:19:39.679Z,99411.70
2019-01-22T09:23:07.541Z,99408.58
2019-01-22T09:26:35.462Z,99410.61
2019-01-22T09:29:35.676Z,99413.46
2019-01-22T09:32:34.050Z,99412.33
2019-01-22T09:35:42.650Z,99414.67
2019-01-22T09:38:32.466Z,99406.07
2019-01-22T09:41:22.328Z,99402.81
2019-01-22T09:44:12.187Z,99398.87
2019-01-22T09:47:02.037Z,99396.52
2019-01-22T09:49:51.847Z,99392.69
2019-01-22T09:52:41.768Z,99390.04
2019-01-22T09:55:31.648Z,99382.09
2019-01-22T09:58:22.418Z,99377.41
2019-01-22T10:01:12.546Z,99376.28
2019-01-22T10:04:03.657Z,99368.08
2019-01-22T10:06:45.339Z,99371.79
2019-01-22T10:09:35.155Z,99369.83
2019-01-22T10:12:25.004Z,99364.53
2019-01-22T10:18:20.310Z,99345.64
2019-01-22T10:21:10.121Z,99344.70
2019-01-22T10:23:59.929Z,99343.30
2019-01-22T10:26:49.714Z,99338.79
2019-01-22T10:29:39.507Z,99332.82
2019-01-22T10:32:48.336Z,99332.72
2019-01-22T10:35:38.348Z,99331.30
2019-01-22T10:38:28.197Z,99323.75
2019-01-22T10:41:18.275Z,99323.00
2019-01-22T10:44:08.387Z,99313.64
2019-01-22T10:46:45.136Z,99308.53
2019-01-22T10:49:34.992Z,99307.11
2019-01-22T10:52:24.851Z,99305.17
2019-01-22T10:58:17.364Z,99296.23
2019-01-22T11:01:07.190Z,99286.84
2019-01-22T11:03:57.033Z,99286.34
2019-01-22T11:06:46.879Z,99289.28
2019-01-22T11:09:36.737Z,99283.58
2019-01-22T11:12:26.630Z,99279.13
2019-01-22T11:15:16.623Z,99275.08
2019-01-22T11:18:07.254Z,99271.62
2019-01-22T11:20:57.124Z,99273.89
2019-01-22T11:23:47.055Z,99264.91
2019-01-22T11:26:36.931Z,99263.08
2019-01-22T11:29:07.349Z,99258.93
2019-01-22T11:31:57.231Z,99255.05
2019-01-22T11:34:47.106Z,99249.48
2019-01-22T11:37:36.906Z,99241.34
2019-01-22T11:40:46.694Z,99238.67
2019-01-22T11:43:36.511Z,99234.69
2019-01-22T11:46:26.418Z,99229.61
2019-01-22T11:49:16.301Z,99223.81
2019-01-22T11:55:27.289Z,99213.73
2019-01-22T11:58:17.111Z,99213.90
2019-01-22T12:01:07.090Z,99208.20
2019-01-22T12:03:37.613Z,99202.66
2019-01-22T12:06:27.492Z,99191.38
2019-01-22T12:09:17.308Z,99188.22
2019-01-22T12:12:07.238Z,99180.67
2019-01-22T12:14:57.078Z,99170.23
2019-01-22T12:17:27.652Z,99160.73
2019-01-22T12:20:20.435Z,99156.61
2019-01-22T12:23:10.315Z,99154.47
2019-01-22T12:26:00.134Z,99161.33
2019-01-22T12:28:30.926Z,99152.24
2019-01-22T12:31:20.804Z,99156.39
2019-01-22T12:34:10.722Z,99150.45
2019-01-22T12:37:00.942Z,99147.19
2019-01-22T12:39:50.793Z,99143.34
2019-01-22T12:42:40.599Z,99140.16
2019-01-22T12:48:23.716Z,99139.34
2019-01-22T12:51:13.536Z,99137.89
2019-01-22T12:54:03.353Z,99128.75
2019-01-22T12:56:33.903Z,99124.95
2019-01-22T12:59:04.330Z,99124.91
2019-01-22T13:01:54.137Z,99129.44
2019-01-22T13:04:43.923Z,99123.28
2019-01-22T13:07:14.402Z,99120.08
2019-01-22T13:09:44.912Z,99115.57
2019-01-22T13:12:34.715Z,99109.98
2019-01-22T13:18:30.513Z,99107.09
2019-01-22T13:21:20.318Z,99103.20
2019-01-22T13:23:50.699Z,99095.86
2019-01-22T13:26:21.080Z,99093.26
2019-01-22T13:29:10.906Z,99090.27
2019-01-22T13:32:00.647Z,99084.61
2019-01-22T13:34:50.525Z,99082.60
2019-01-22T13:37:40.296Z,99072.41
2019-01-22T13:40:30.347Z,99074.17
2019-01-22T13:43:20.149Z,99077.00
2019-01-22T13:46:10.003Z,99070.03
2019-01-22T13:48:59.826Z,99074.47
2019-01-22T13:51:49.645Z,99070.41
2019-01-22T13:54:39.459Z,99066.66
2019-01-22T13:57:29.286Z,99064.92
2019-01-22T14:00:20.952Z,99061.25
2019-01-22T14:03:10.826Z,99055.13
2019-01-22T14:06:00.622Z,99046.02
2019-01-22T14:08:50.452Z,99042.75
2019-01-22T14:11:40.289Z,99034.56
2019-01-22T14:14:30.161Z,99035.55
2019-01-22T14:17:00.562Z,99028.70
2019-01-22T14:19:50.358Z,99016.63
2019-01-22T14:22:40.241Z,99019.40
2019-01-22T14:25:30.114Z,99010.59
2019-01-22T14:28:00.554Z,99012.43
2019-01-22T14:30:50.338Z,99010.87
2019-01-22T14:33:40.135Z,99005.16
2019-01-22T14:36:29.918Z,99008.34
2019-01-22T14:39:26.482Z,99006.14
2019-01-22T14:42:11.524Z,99002.84
2019-01-22T14:45:01.357Z,98997.63
2019-01-22T14:47:51.302Z,98985.94
2019-01-22T14:50:41.222Z,98987.09
2019-01-22T14:53:30.998Z,98990.25
2019-01-22T14:56:20.938Z,98990.28
2019-01-22T14:58:51.384Z,98980.73
2019-01-22T15:01:41.277Z,98977.48
2019-01-22T15:04:31.083Z,98976.42
2019-01-22T15:07:01.563Z,98975.62
2019-01-22T15:09:51.335Z,98974.86
2019-01-22T15:12:21.792Z,98966.02
2019-01-22T15:15:12.899Z,98969.89
2019-01-22T15:17:43.464Z,98958.97
2019-01-22T15:20:33.460Z,98955.64
2019-01-22T15:23:23.312Z,98951.70
2019-01-22T15:26:13.119Z,98952.64
2019-01-22T15:29:03.003Z,98948.14
2019-01-22T15:31:33.549Z,98943.44
2019-01-22T15:34:23.411Z,98942.34
2019-01-22T15:37:00.110Z,98942.71
2019-01-22T15:39:30.634Z,98939.19
2019-01-22T15:42:20.459Z,98941.80
2019-01-22T15:45:10.388Z,98943.44
2019-01-22T15:48:00.257Z,98938.41
2019-01-22T15:50:51.941Z,98933.13
2019-01-22T15:53:41.733Z,98941.70
2019-01-22T15:56:31.573Z,98931.66
2019-01-22T15:59:21.427Z,98934.87
2019-01-22T16:01:53.730Z,98927.27
2019-01-22T16:04:43.551Z,98931.02
2019-01-22T16:07:33.383Z,98934.84
2019-01-22T16:10:04.397Z,98932.34
2019-01-22T16:12:54.260Z,98922.59
2019-01-22T16:15:44.062Z,98921.64
2019-01-22T16:18:33.908Z,98910.85
2019-01-22T16:21:04.745Z,98908.73
2019-01-22T16:23:54.556Z,98913.92
2019-01-22T16:26:44.396Z,98910.34
2019-01-22T16:29:34.247Z,98908.95
2019-01-22T16:32:04.785Z,98901.50
2019-01-22T16:34:54.577Z,98904.23
2019-01-22T16:37:44.396Z,98895.19
2019-01-22T16:40:34.448Z,98894.62
2019-01-22T16:43:24.098Z,98897.49
2019-01-22T16:45:54.492Z,98886.32
2019-01-22T16:48:24.925Z,98885.33
2019-01-22T16:51:14.776Z,98877.28
2019-01-22T16:54:04.824Z,98874.31
2019-01-22T16:57:00.458Z,98877.50
2019-01-22T16:59:37.091Z,98874.20
2019-01-22T17:02:27.021Z,98872.64
2019-01-22T17:05:17.085Z,98869.28
2019-01-22T17:07:47.488Z,98867.55
2019-01-22T17:10:18.690Z,98868.02
2019-01-22T17:12:49.185Z,98868.97
2019-01-22T17:16:18.408Z,98865.36
2019-01-22T17:19:08.369Z,98864.16
2019-01-22T17:21:38.810Z,98854.07
2019-01-22T17:24:28.605Z,98854.27
2019-01-22T17:27:18.454Z,98850.03
2019-01-22T17:30:11.253Z,98842.28
2019-01-22T17:33:00.623Z,98846.64
2019-01-22T17:38:15.812Z,98847.21
2019-01-22T17:41:05.714Z,98842.13
2019-01-22T17:43:36.167Z,98841.83
2019-01-22T17:46:25.946Z,98837.28
2019-01-22T17:49:15.770Z,98839.25
2019-01-22T17:51:46.339Z,98831.31
2019-01-22T17:54:36.189Z,98830.36
2019-01-22T17:57:25.968Z,98828.68
2019-01-22T18:03:14.910Z,98821.83
2019-01-22T18:06:05.080Z,98812.91
2019-01-22T18:08:54.917Z,98804.52
2019-01-22T18:11:44.747Z,98803.25
2019-01-22T18:14:34.588Z,98795.55
2019-01-22T18:17:05.297Z,98799.50
2019-01-22T18:19:55.222Z,98788.70
2019-01-22T18:22:26.395Z,98793.72
2019-01-22T18:25:16.824Z,98790.84
2019-01-22T18:27:47.239Z,98791.23
2019-01-22T18:30:37.047Z,98786.20
2019-01-22T18:33:26.897Z,98790.36
2019-01-22T18:36:16.844Z,98785.20
2019-01-22T18:39:08.429Z,98787.00
2019-01-22T18:41:58.222Z,98784.82
2019-01-22T18:44:48.083Z,98784.95
2019-01-22T18:47:38.210Z,98776.69
2019-01-22T18:50:28.015Z,98778.00
2019-01-22T18:53:17.791Z,98776.54
2019-01-22T18:56:07.633Z,98781.47
2019-01-22T18:58:57.434Z,98777.22
2019-01-22T19:01:47.300Z,98775.51
2019-01-22T19:04:37.091Z,98777.16
2019-01-22T19:07:26.904Z,98772.51
2019-01-22T19:10:35.752Z,98768.63
2019-01-22T19:13:25.605Z,98766.59
2019-01-22T19:16:15.457Z,98761.74
2019-01-22T19:18:45.926Z,98761.86
2019-01-22T19:21:35.860Z,98764.87
2019-01-22T19:24:25.911Z,98751.30
2019-01-22T19:27:15.755Z,98754.81
2019-01-22T19:30:08.271Z,98746.24
2019-01-22T19:32:38.712Z,98745.68
2019-01-22T19:35:28.582Z,98739.59
2019-01-22T19:37:59.042Z,98740.81
2019-01-22T19:40:48.834Z,98738.47
2019-01-22T19:43:38.646Z,98733.58
2019-01-22T19:46:28.530Z,98729.27
2019-01-22T19:49:18.375Z,98730.17
2019-01-22T19:51:48.812Z,98733.49
2019-01-22T19:54:19.643Z,98723.84
2019-01-22T19:57:09.460Z,98715.16
2019-01-22T19:59:39.853Z,98712.70
2019-01-22T20:02:29.679Z,98712.36
2019-01-22T20:05:19.597Z,98714.57
2019-01-22T20:08:09.747Z,98704.11
2019-01-22T20:10:59.549Z,98702.86
2019-01-22T20:13:49.341Z,98696.98
2019-01-22T20:16:39.216Z,98694.02
2019-01-22T20:19:29.142Z,98693.70
2019-01-22T20:21:59.899Z,98688.55
2019-01-22T20:24:49.729Z,98691.33
2019-01-22T20:27:39.571Z,98679.39
2019-01-22T20:30:31.797Z,98681.02
2019-01-22T20:33:21.720Z,98678.28
2019-01-22T20:36:11.543Z,98675.06
2019-01-22T20:38:43.571Z,98673.91
2019-01-22T20:41:33.381Z,98673.38
2019-01-22T20:44:23.222Z,98672.73
2019-01-22T20:46:53.974Z,98668.34
2019-01-22T20:49:43.842Z,98667.87
2019-01-22T20:52:33.709Z,98668.50
2019-01-22T20:55:23.645Z,98663.20
2019-01-22T20:58:13.513Z,98658.43
2019-01-22T21:00:44.087Z,98660.05
2019-01-22T21:03:33.865Z,98651.92
2019-01-22T21:06:23.734Z,98649.67
2019-01-22T21:09:13.511Z,98644.97
2019-01-22T21:12:03.396Z,98642.31
2019-01-22T21:14:53.179Z,98637.66
2019-01-22T21:17:43.024Z,98640.16
2019-01-22T21:20:32.802Z,98639.89
2019-01-22T21:23:22.608Z,98642.33
2019-01-22T21:25:53.146Z,98638.11
2019-01-22T21:28:42.964Z,98634.53
2019-01-22T21:31:32.722Z,98632.62
2019-01-22T21:34:22.545Z,98628.56
2019-01-22T21:37:12.314Z,98622.09
2019-01-22T21:40:02.125Z,98622.08
2019-01-22T21:42:52.077Z,98620.77
2019-01-22T21:45:41.928Z,98616.78
2019-01-22T21:48:31.746Z,98611.63
2019-01-22T21:51:21.562Z,98609.98
2019-01-22T21:54:11.747Z,98604.42
2019-01-22T21:59:52.659Z,98594.95
2019-01-22T22:02:28.758Z,98601.91
2019-01-22T22:08:24.414Z,98596.78
2019-01-22T22:11:14.181Z,98590.28
2019-01-22T22:14:03.990Z,98595.38
2019-01-22T22:16:53.745Z,98581.05
2019-01-22T22:19:43.604Z,98586.34
2019-01-22T22:22:33.393Z,98583.34
2019-01-22T22:28:26.377Z,98583.77
2019-01-22T22:31:16.236Z,98584.95
2019-01-22T22:33:46.695Z,98574.88
2019-01-22T22:36:36.476Z,98577.07
2019-01-22T22:39:11.404Z,98579.81
2019-01-22T22:42:01.238Z,98572.07
2019-01-22T22:44:51.010Z,98567.30
2019-01-22T22:47:21.414Z,98562.53
2019-01-22T22:50:14.586Z,98565.83
2019-01-22T22:53:04.390Z,98559.10
2019-01-22T22:55:34.880Z,98548.18
2019-01-22T22:58:05.406Z,98544.76
2019-01-22T23:01:14.195Z,98543.86
2019-01-22T23:04:04.119Z,98541.98
2019-01-22T23:06:53.952Z,98539.17
2019-01-22T23:09:43.842Z,98529.50
2019-01-22T23:12:34.036Z,98525.12
2019-01-22T23:15:23.839Z,98520.69
2019-01-22T23:18:13.749Z,98520.76
2019-01-22T23:21:03.562Z,98518.98
2019-01-22T23:23:53.379Z,98514.04
2019-01-22T23:26:43.180Z,98512.39
2019-01-22T23:29:32.997Z,98506.49
2019-01-22T23:32:22.801Z,98498.80
2019-01-22T23:38:14.748Z,98493.17
2019-01-22T23:41:04.544Z,98482.33
2019-01-22T23:43:54.309Z,98479.53
2019-01-22T23:46:44.071Z,98477.11
2019-01-22T23:49:33.924Z,98471.74
2019-01-22T23:52:23.682Z,98462.28
2019-01-22T23:55:13.662Z,98461.36
2019-01-22T23:58:03.439Z,98460.42
